createdAt,value
2023-04-16T00:00:20.852Z,0.4927
2023-04-16T00:01:23.770Z,0.4963
2023-04-16T00:02:26.829Z,0.4912
2023-04-16T00:03:29.843Z,0.4855
2023-04-16T00:04:32.636Z,0.4936
2023-04-16T00:05:35.534Z,0.4972
2023-04-16T00:06:38.502Z,0.4956
2023-04-16T00:07:41.431Z,0.4956
2023-04-16T00:08:44.358Z,0.4917
2023-04-16T00:09:47.301Z,0.4925
2023-04-16T00:10:50.263Z,0.4942
2023-04-16T00:11:53.204Z,0.4867
2023-04-16T00:12:56.152Z,0.4802
2023-04-16T00:13:59.075Z,0.4834
2023-04-16T00:15:02.076Z,0.4696
2023-04-16T00:16:04.958Z,0.4710
2023-04-16T00:17:08.034Z,0.4783
2023-04-16T00:18:10.885Z,0.4826
2023-04-16T00:19:13.860Z,0.4696
2023-04-16T00:20:16.772Z,0.4741
2023-04-16T00:21:19.706Z,0.4791
2023-04-16T00:22:22.664Z,0.4727
2023-04-16T00:23:25.593Z,0.4652
2023-04-16T00:24:28.589Z,0.4650
2023-04-16T00:25:31.480Z,0.4661
2023-04-16T00:26:34.415Z,0.4694
2023-04-16T00:27:37.409Z,0.4683
2023-04-16T00:28:40.304Z,0.4659
2023-04-16T00:29:43.254Z,0.4684
2023-04-16T00:30:46.224Z,0.4751
2023-04-16T00:31:49.138Z,0.4711
2023-04-16T00:32:52.193Z,0.4796
2023-04-16T00:33:55.023Z,0.4881
2023-04-16T00:34:57.964Z,0.4908
2023-04-16T00:36:00.951Z,0.4841
2023-04-16T00:37:03.926Z,0.4840
2023-04-16T00:38:06.815Z,0.4887
2023-04-16T00:39:09.883Z,0.4941
2023-04-16T00:40:12.713Z,0.5015
2023-04-16T00:41:15.632Z,0.4940
2023-04-16T00:42:18.591Z,0.4986
2023-04-16T00:43:21.541Z,0.5013
2023-04-16T00:44:24.469Z,0.5022
2023-04-16T00:45:27.456Z,0.5007
2023-04-16T00:46:30.383Z,0.5042
2023-04-16T00:47:33.456Z,0.5089
2023-04-16T00:48:36.257Z,0.5110
2023-04-16T00:49:39.184Z,0.4930
2023-04-16T00:50:42.150Z,0.4771
2023-04-16T00:51:45.061Z,0.4683
2023-04-16T00:52:48.023Z,0.4593
2023-04-16T00:53:50.959Z,0.4558
2023-04-16T00:54:53.919Z,0.4562
2023-04-16T00:55:56.895Z,0.4560
2023-04-16T00:56:59.800Z,0.4522
2023-04-16T00:58:02.756Z,0.4548
2023-04-16T00:59:05.690Z,0.4512
2023-04-16T01:00:08.662Z,0.4526
2023-04-16T01:01:11.608Z,0.4536
2023-04-16T01:02:14.743Z,0.4605
2023-04-16T01:03:17.624Z,0.4571
2023-04-16T01:04:20.509Z,0.4570
2023-04-16T01:05:23.413Z,0.4670
2023-04-16T01:06:26.298Z,0.4699
2023-04-16T01:07:29.231Z,0.4665
2023-04-16T01:08:32.243Z,0.4708
2023-04-16T01:09:35.133Z,0.4715
2023-04-16T01:10:38.134Z,0.4702
2023-04-16T01:11:41.035Z,0.4700
2023-04-16T01:12:43.958Z,0.4641
2023-04-16T01:13:46.917Z,0.4614
2023-04-16T01:14:49.839Z,0.4651
2023-04-16T01:15:52.855Z,0.4691
2023-04-16T01:16:55.736Z,0.4666
2023-04-16T01:17:58.762Z,0.4599
2023-04-16T01:19:01.659Z,0.4595
2023-04-16T01:20:04.652Z,0.4549
2023-04-16T01:21:07.507Z,0.4580
2023-04-16T01:22:10.468Z,0.4672
2023-04-16T01:23:13.416Z,0.4683
2023-04-16T01:24:16.346Z,0.4716
2023-04-16T01:25:19.287Z,0.4767
2023-04-16T01:26:22.226Z,0.4820
2023-04-16T01:27:25.191Z,0.4905
2023-04-16T01:28:28.300Z,0.4786
2023-04-16T01:29:31.062Z,0.4737
2023-04-16T01:30:34.004Z,0.4815
2023-04-16T01:31:36.970Z,0.4802
2023-04-16T01:32:39.904Z,0.4855
2023-04-16T01:33:42.930Z,0.4927
2023-04-16T01:34:45.777Z,0.4909
2023-04-16T01:35:48.728Z,0.4896
2023-04-16T01:36:51.807Z,0.4874
2023-04-16T01:37:54.595Z,0.4851
2023-04-16T01:38:57.606Z,0.4813
2023-04-16T01:40:00.489Z,0.4834
2023-04-16T01:41:03.424Z,0.4772
2023-04-16T01:42:06.570Z,0.4804
2023-04-16T01:43:09.430Z,0.4743
2023-04-16T01:44:12.320Z,0.4711
2023-04-16T01:45:15.204Z,0.4750
2023-04-16T01:46:18.213Z,0.4806
2023-04-16T01:47:21.135Z,0.4795
2023-04-16T01:48:24.027Z,0.4792
2023-04-16T01:49:26.967Z,0.4752
2023-04-16T01:50:29.950Z,0.4806
2023-04-16T01:51:32.860Z,0.4760
2023-04-16T01:52:35.821Z,0.4824
2023-04-16T01:53:38.754Z,0.4885
2023-04-16T01:54:41.693Z,0.4880
2023-04-16T01:55:44.810Z,0.4878
2023-04-16T01:56:47.591Z,0.4942
2023-04-16T01:57:50.577Z,0.4891
2023-04-16T01:58:53.496Z,0.4919
2023-04-16T01:59:56.449Z,0.4982
2023-04-16T02:00:59.438Z,0.5046
2023-04-16T02:02:02.404Z,0.5057
2023-04-16T02:03:05.357Z,0.4982
2023-04-16T02:04:08.255Z,0.5023
2023-04-16T02:05:11.168Z,0.5015
2023-04-16T02:06:14.187Z,0.4963
2023-04-16T02:07:17.070Z,0.4973
2023-04-16T02:08:20.036Z,0.4902
2023-04-16T02:09:22.939Z,0.4757
2023-04-16T02:10:25.880Z,0.4745
2023-04-16T02:11:28.831Z,0.4728
2023-04-16T02:12:31.785Z,0.4818
2023-04-16T02:13:34.730Z,0.4967
2023-04-16T02:14:37.680Z,0.4970
2023-04-16T02:15:40.631Z,0.4900
2023-04-16T02:16:43.577Z,0.5020
2023-04-16T02:17:46.694Z,0.5065
2023-04-16T02:18:49.420Z,0.4991
2023-04-16T02:19:52.477Z,0.4981
2023-04-16T02:20:55.317Z,0.4930
2023-04-16T02:21:58.276Z,0.4855
2023-04-16T02:23:01.204Z,0.4862
2023-04-16T02:24:04.136Z,0.4806
2023-04-16T02:25:07.076Z,0.4860
2023-04-16T02:26:10.028Z,0.4875
2023-04-16T02:27:13.108Z,0.4801
2023-04-16T02:28:15.955Z,0.4865
2023-04-16T02:29:18.852Z,0.4863
2023-04-16T02:30:21.797Z,0.4996
2023-04-16T02:31:24.844Z,0.5000
2023-04-16T02:32:27.723Z,0.5060
2023-04-16T02:33:30.663Z,0.5121
2023-04-16T02:34:33.610Z,0.5141
2023-04-16T02:35:36.519Z,0.5060
2023-04-16T02:36:39.497Z,0.4943
2023-04-16T02:37:42.417Z,0.4936
2023-04-16T02:38:45.407Z,0.4897
2023-04-16T02:39:48.297Z,0.4888
2023-04-16T02:40:51.259Z,0.4904
2023-04-16T02:41:54.173Z,0.4853
2023-04-16T02:42:57.208Z,0.4836
2023-04-16T02:44:00.081Z,0.4871
2023-04-16T02:45:03.035Z,0.4866
2023-04-16T02:46:06.087Z,0.4919
2023-04-16T02:47:08.914Z,0.4941
2023-04-16T02:48:11.911Z,0.4931
2023-04-16T02:49:14.822Z,0.4841
2023-04-16T02:50:17.768Z,0.4790
2023-04-16T02:51:20.746Z,0.4798
2023-04-16T02:52:23.648Z,0.4919
2023-04-16T02:53:26.642Z,0.5057
2023-04-16T02:54:29.533Z,0.4915
2023-04-16T02:55:32.489Z,0.4898
2023-04-16T02:56:35.433Z,0.4871
2023-04-16T02:57:38.426Z,0.4925
2023-04-16T02:58:41.328Z,0.4843
2023-04-16T02:59:44.263Z,0.4982
2023-04-16T03:00:47.217Z,0.4914
2023-04-16T03:01:50.255Z,0.4914
2023-04-16T03:02:53.139Z,0.4855
2023-04-16T03:03:56.089Z,0.4858
2023-04-16T03:04:59.041Z,0.4924
2023-04-16T03:06:01.964Z,0.4921
2023-04-16T03:07:04.872Z,0.4921
2023-04-16T03:08:07.810Z,0.5005
2023-04-16T03:09:10.976Z,0.4831
2023-04-16T03:10:13.723Z,0.4738
2023-04-16T03:11:16.687Z,0.4736
2023-04-16T03:12:19.792Z,0.4758
2023-04-16T03:13:22.528Z,0.4809
2023-04-16T03:14:25.468Z,0.4852
2023-04-16T03:15:28.503Z,0.5026
2023-04-16T03:16:31.368Z,0.5043
2023-04-16T03:17:34.378Z,0.4941
2023-04-16T03:18:37.261Z,0.4871
2023-04-16T03:19:40.194Z,0.4900
2023-04-16T03:20:43.160Z,0.4847
2023-04-16T03:21:46.090Z,0.4759
2023-04-16T03:22:49.043Z,0.4763
2023-04-16T03:23:52.003Z,0.4817
2023-04-16T03:24:54.935Z,0.4855
2023-04-16T03:25:57.873Z,0.5047
2023-04-16T03:27:00.865Z,0.5138
2023-04-16T03:28:03.826Z,0.5280
2023-04-16T03:29:07.009Z,0.5190
2023-04-16T03:30:09.642Z,0.5056
2023-04-16T03:31:12.624Z,0.4882
2023-04-16T03:32:15.652Z,0.4824
2023-04-16T03:33:18.479Z,0.4816
2023-04-16T03:34:21.475Z,0.4761
2023-04-16T03:35:24.368Z,0.4789
2023-04-16T03:36:27.534Z,0.4797
2023-04-16T03:37:30.305Z,0.4832
2023-04-16T03:38:33.180Z,0.4921
2023-04-16T03:39:36.151Z,0.4897
2023-04-16T03:40:39.082Z,0.4802
2023-04-16T03:41:42.044Z,0.4672
2023-04-16T03:42:45.000Z,0.4749
2023-04-16T03:43:47.929Z,0.4828
2023-04-16T03:44:50.867Z,0.4894
2023-04-16T03:45:53.840Z,0.4949
2023-04-16T03:46:56.970Z,0.4977
2023-04-16T03:47:59.714Z,0.4874
2023-04-16T03:49:02.640Z,0.4952
2023-04-16T03:50:05.598Z,0.4859
2023-04-16T03:51:08.530Z,0.4757
2023-04-16T03:52:11.493Z,0.4820
2023-04-16T03:53:14.429Z,0.4853
2023-04-16T03:54:17.384Z,0.4859
2023-04-16T03:55:20.298Z,0.4865
2023-04-16T03:56:23.262Z,0.4765
2023-04-16T03:57:26.252Z,0.4776
2023-04-16T03:58:29.148Z,0.4890
2023-04-16T03:59:32.094Z,0.4880
2023-04-16T04:00:35.042Z,0.4932
2023-04-16T04:01:38.057Z,0.4914
2023-04-16T04:02:41.151Z,0.4902
2023-04-16T04:03:44.106Z,0.4870
2023-04-16T04:04:47.009Z,0.4898
2023-04-16T04:05:49.833Z,0.5087
2023-04-16T04:06:52.843Z,0.4925
2023-04-16T04:07:55.729Z,0.4930
2023-04-16T04:08:58.683Z,0.4878
2023-04-16T04:10:01.683Z,0.5120
2023-04-16T04:11:04.571Z,0.5076
2023-04-16T04:12:07.525Z,0.4960
2023-04-16T04:13:10.513Z,0.4857
2023-04-16T04:14:13.399Z,0.4804
2023-04-16T04:15:16.332Z,0.4838
2023-04-16T04:16:19.278Z,0.4786
2023-04-16T04:17:22.359Z,0.4705
2023-04-16T04:18:25.154Z,0.4778
2023-04-16T04:19:28.172Z,0.4822
2023-04-16T04:20:31.112Z,0.4818
2023-04-16T04:21:34.027Z,0.4906
2023-04-16T04:22:37.000Z,0.5055
2023-04-16T04:23:39.901Z,0.5176
2023-04-16T04:24:42.842Z,0.5132
2023-04-16T04:25:45.830Z,0.5114
2023-04-16T04:26:48.740Z,0.5097
2023-04-16T04:27:51.675Z,0.5043
2023-04-16T04:28:54.618Z,0.4925
2023-04-16T04:29:57.588Z,0.4915
2023-04-16T04:31:00.558Z,0.4789
2023-04-16T04:32:03.500Z,0.4785
2023-04-16T04:33:06.511Z,0.4788
2023-04-16T04:34:09.352Z,0.4784
2023-04-16T04:35:12.315Z,0.4907
2023-04-16T04:36:15.382Z,0.4757
2023-04-16T04:37:18.198Z,0.4689
2023-04-16T04:38:21.182Z,0.4716
2023-04-16T04:39:24.106Z,0.4817
2023-04-16T04:40:27.038Z,0.4741
2023-04-16T04:41:29.997Z,0.4648
2023-04-16T04:42:32.947Z,0.4689
2023-04-16T04:43:35.892Z,0.4760
2023-04-16T04:44:38.801Z,0.4810
2023-04-16T04:45:41.741Z,0.4785
2023-04-16T04:46:44.703Z,0.4669
2023-04-16T04:47:47.686Z,0.4807
2023-04-16T04:48:50.573Z,0.4767
2023-04-16T04:49:53.545Z,0.4852
2023-04-16T04:50:56.464Z,0.4912
2023-04-16T04:51:59.413Z,0.5061
2023-04-16T04:53:02.337Z,0.5255
2023-04-16T04:54:05.277Z,0.5378
2023-04-16T04:55:08.243Z,0.5393
2023-04-16T04:56:12.772Z,0.5373
2023-04-16T04:57:14.113Z,0.5466
2023-04-16T04:58:17.058Z,0.5351
2023-04-16T04:59:20.016Z,0.5150
2023-04-16T05:00:22.988Z,0.5151
2023-04-16T05:01:25.981Z,0.5274
2023-04-16T05:02:28.922Z,0.5145
2023-04-16T05:03:31.884Z,0.5133
2023-04-16T05:04:34.783Z,0.5135
2023-04-16T05:05:37.736Z,0.5114
2023-04-16T05:06:40.629Z,0.5237
2023-04-16T05:07:43.600Z,0.5200
2023-04-16T05:08:46.521Z,0.5153
2023-04-16T05:09:49.477Z,0.5244
2023-04-16T05:10:52.432Z,0.5065
2023-04-16T05:11:55.391Z,0.5010
2023-04-16T05:12:58.323Z,0.4909
2023-04-16T05:14:01.264Z,0.4842
2023-04-16T05:15:04.194Z,0.4932
2023-04-16T05:16:07.164Z,0.4976
2023-04-16T05:17:10.126Z,0.4879
2023-04-16T05:18:13.081Z,0.4929
2023-04-16T05:19:15.987Z,0.4847
2023-04-16T05:20:19.002Z,0.4885
2023-04-16T05:21:21.887Z,0.4837
2023-04-16T05:22:24.865Z,0.4768
2023-04-16T05:23:27.787Z,0.4922
2023-04-16T05:24:30.898Z,0.4891
2023-04-16T05:25:33.697Z,0.4910
2023-04-16T05:26:36.654Z,0.4986
2023-04-16T05:27:39.576Z,0.4808
2023-04-16T05:28:42.531Z,0.4768
2023-04-16T05:29:45.469Z,0.4909
2023-04-16T05:30:48.437Z,0.4926
2023-04-16T05:31:51.434Z,0.4976
2023-04-16T05:32:54.383Z,0.4942
2023-04-16T05:33:57.264Z,0.4868
2023-04-16T05:35:00.216Z,0.4675
2023-04-16T05:36:03.161Z,0.4705
2023-04-16T05:37:06.099Z,0.4571
2023-04-16T05:38:09.037Z,0.4669
2023-04-16T05:39:12.094Z,0.4821
2023-04-16T05:40:14.955Z,0.4798
2023-04-16T05:41:17.911Z,0.4971
2023-04-16T05:42:20.836Z,0.5135
2023-04-16T05:43:24.035Z,0.5001
2023-04-16T05:44:26.725Z,0.5078
2023-04-16T05:45:29.667Z,0.5190
2023-04-16T05:46:32.737Z,0.5142
2023-04-16T05:47:35.630Z,0.4998
2023-04-16T05:48:38.564Z,0.4993
2023-04-16T05:49:41.462Z,0.4898
2023-04-16T05:50:44.398Z,0.4808
2023-04-16T05:51:47.413Z,0.4859
2023-04-16T05:52:50.309Z,0.4903
2023-04-16T05:53:53.231Z,0.4829
2023-04-16T05:54:56.196Z,0.4666
2023-04-16T05:55:59.189Z,0.4711
2023-04-16T05:57:02.135Z,0.4774
2023-04-16T05:58:05.019Z,0.4851
2023-04-16T05:59:08.287Z,0.4990
2023-04-16T06:00:10.955Z,0.4936
2023-04-16T06:01:13.913Z,0.4907
2023-04-16T06:02:16.870Z,0.5021
2023-04-16T06:03:19.790Z,0.5016
2023-04-16T06:04:22.725Z,0.5032
2023-04-16T06:05:25.664Z,0.5050
2023-04-16T06:06:28.571Z,0.5025
2023-04-16T06:07:31.519Z,0.4860
2023-04-16T06:08:34.495Z,0.4863
2023-04-16T06:09:37.411Z,0.4606
2023-04-16T06:10:40.379Z,0.4877
2023-04-16T06:11:43.317Z,0.4872
2023-04-16T06:12:46.309Z,0.4754
2023-04-16T06:13:49.299Z,0.4825
2023-04-16T06:14:52.162Z,0.4804
2023-04-16T06:15:55.161Z,0.4897
2023-04-16T06:16:58.074Z,0.4904
2023-04-16T06:18:01.209Z,0.4915
2023-04-16T06:19:03.926Z,0.4995
2023-04-16T06:20:06.874Z,0.4833
2023-04-16T06:21:09.847Z,0.4754
2023-04-16T06:22:12.749Z,0.4753
2023-04-16T06:23:15.707Z,0.4751
2023-04-16T06:24:18.655Z,0.4798
2023-04-16T06:25:21.617Z,0.4938
2023-04-16T06:26:24.570Z,0.4996
2023-04-16T06:27:27.486Z,0.5143
2023-04-16T06:28:30.429Z,0.5069
2023-04-16T06:29:40.586Z,0.4934
2023-04-16T06:30:36.349Z,0.5004
2023-04-16T06:31:39.297Z,0.4996
2023-04-16T06:32:42.320Z,0.5062
2023-04-16T06:33:45.159Z,0.5064
2023-04-16T06:34:48.095Z,0.4980
2023-04-16T06:35:51.048Z,0.4946
2023-04-16T06:36:53.999Z,0.5017
2023-04-16T06:37:56.947Z,0.5014
2023-04-16T06:38:59.899Z,0.4977
2023-04-16T06:40:02.847Z,0.5018
2023-04-16T06:41:05.955Z,0.4955
2023-04-16T06:42:08.738Z,0.5085
2023-04-16T06:43:11.653Z,0.5009
2023-04-16T06:44:14.597Z,0.5079
2023-04-16T06:45:17.556Z,0.5077
2023-04-16T06:46:20.502Z,0.5300
2023-04-16T06:47:23.544Z,0.5291
2023-04-16T06:48:26.429Z,0.5079
2023-04-16T06:49:29.331Z,0.5190
2023-04-16T06:50:32.300Z,0.5180
2023-04-16T06:51:35.226Z,0.5127
2023-04-16T06:52:38.323Z,0.5103
2023-04-16T06:53:41.109Z,0.5279
2023-04-16T06:54:44.036Z,0.5618
2023-04-16T06:55:46.993Z,0.5677
2023-04-16T06:56:49.974Z,0.5524
2023-04-16T06:57:52.903Z,0.5341
2023-04-16T06:58:55.828Z,0.5406
2023-04-16T06:59:58.780Z,0.5498
2023-04-16T07:01:01.746Z,0.5773
2023-04-16T07:02:04.754Z,0.5795
2023-04-16T07:03:07.919Z,0.5698
2023-04-16T07:04:10.682Z,0.5599
2023-04-16T07:05:13.494Z,0.5571
2023-04-16T07:06:16.440Z,0.5487
2023-04-16T07:07:19.463Z,0.5261
2023-04-16T07:08:22.337Z,0.5100
2023-04-16T07:09:25.309Z,0.5342
2023-04-16T07:10:28.225Z,0.5431
2023-04-16T07:11:31.161Z,0.5380
2023-04-16T07:12:34.116Z,0.5144
2023-04-16T07:13:37.194Z,0.5217
2023-04-16T07:14:39.994Z,0.5109
2023-04-16T07:15:42.972Z,0.5083
2023-04-16T07:16:45.920Z,0.4914
2023-04-16T07:17:48.882Z,0.4941
2023-04-16T07:18:51.778Z,0.4941
2023-04-16T07:19:54.754Z,0.4879
2023-04-16T07:20:57.715Z,0.4998
2023-04-16T07:22:00.611Z,0.4958
2023-04-16T07:23:03.607Z,0.4896
2023-04-16T07:24:06.507Z,0.4951
2023-04-16T07:25:09.520Z,0.5045
2023-04-16T07:26:12.423Z,0.5083
2023-04-16T07:27:15.450Z,0.5076
2023-04-16T07:28:18.300Z,0.5170
2023-04-16T07:29:21.258Z,0.5179
2023-04-16T07:30:24.206Z,0.5090
2023-04-16T07:31:27.348Z,0.4867
2023-04-16T07:32:30.101Z,0.4893
2023-04-16T07:33:33.049Z,0.4912
2023-04-16T07:34:35.966Z,0.4887
2023-04-16T07:35:38.943Z,0.4987
2023-04-16T07:36:41.937Z,0.5013
2023-04-16T07:37:44.801Z,0.4967
2023-04-16T07:38:47.751Z,0.4874
2023-04-16T07:39:50.697Z,0.4852
2023-04-16T07:40:53.672Z,0.4966
2023-04-16T07:41:56.592Z,0.5075
2023-04-16T07:42:59.655Z,0.5053
2023-04-16T07:44:02.525Z,0.5055
2023-04-16T07:45:05.489Z,0.4861
2023-04-16T07:46:08.480Z,0.4767
2023-04-16T07:47:11.301Z,0.4746
2023-04-16T07:48:14.289Z,0.4795
2023-04-16T07:49:17.197Z,0.4759
2023-04-16T07:50:20.142Z,0.4767
2023-04-16T07:51:23.110Z,0.4751
2023-04-16T07:52:26.028Z,0.4823
2023-04-16T07:53:28.966Z,0.4734
2023-04-16T07:54:31.952Z,0.4762
2023-04-16T07:55:34.850Z,0.4794
2023-04-16T07:56:37.797Z,0.4753
2023-04-16T07:57:40.779Z,0.4735
2023-04-16T07:58:43.740Z,0.4858
2023-04-16T07:59:46.654Z,0.4887
2023-04-16T08:00:50.872Z,0.4771
2023-04-16T08:01:52.566Z,0.4786
2023-04-16T08:02:55.583Z,0.4997
2023-04-16T08:03:58.496Z,0.5146
2023-04-16T08:05:01.455Z,0.5055
2023-04-16T08:06:04.302Z,0.5039
2023-04-16T08:07:07.285Z,0.5028
2023-04-16T08:08:10.185Z,0.4947
2023-04-16T08:09:13.242Z,0.4928
2023-04-16T08:10:16.079Z,0.5052
2023-04-16T08:11:19.041Z,0.5040
2023-04-16T08:12:21.981Z,0.4961
2023-04-16T08:13:24.992Z,0.4859
2023-04-16T08:14:27.939Z,0.5001
2023-04-16T08:15:30.917Z,0.5038
2023-04-16T08:16:33.835Z,0.5031
2023-04-16T08:17:36.892Z,0.5014
2023-04-16T08:18:39.740Z,0.4845
2023-04-16T08:19:42.692Z,0.5058
2023-04-16T08:20:45.617Z,0.5125
2023-04-16T08:21:48.595Z,0.5114
2023-04-16T08:22:51.522Z,0.5225
2023-04-16T08:23:54.474Z,0.5173
2023-04-16T08:24:57.401Z,0.4959
2023-04-16T08:26:00.352Z,0.5064
2023-04-16T08:27:17.279Z,0.4940
2023-04-16T08:28:06.271Z,0.4909
2023-04-16T08:29:09.450Z,0.4927
2023-04-16T08:30:12.162Z,0.4829
2023-04-16T08:31:15.136Z,0.4943
2023-04-16T08:32:18.035Z,0.5063
2023-04-16T08:33:20.988Z,0.5174
2023-04-16T08:34:23.980Z,0.4882
2023-04-16T08:35:26.875Z,0.5045
2023-04-16T08:36:29.821Z,0.5159
2023-04-16T08:37:32.786Z,0.4958
2023-04-16T08:38:35.832Z,0.4908
2023-04-16T08:39:38.705Z,0.4898
2023-04-16T08:40:41.777Z,0.4809
2023-04-16T08:41:44.636Z,0.4916
2023-04-16T08:42:47.522Z,0.5044
2023-04-16T08:43:50.525Z,0.4876
2023-04-16T08:44:53.407Z,0.4855
2023-04-16T08:45:56.475Z,0.4917
2023-04-16T08:46:59.444Z,0.4808
2023-04-16T08:48:02.360Z,0.4890
2023-04-16T08:49:05.207Z,0.4934
2023-04-16T08:50:08.180Z,0.4945
2023-04-16T08:51:11.257Z,0.5020
2023-04-16T08:52:14.024Z,0.4976
2023-04-16T08:53:16.978Z,0.4870
2023-04-16T08:54:19.920Z,0.4696
2023-04-16T08:55:22.870Z,0.4695
2023-04-16T08:56:25.832Z,0.4604
2023-04-16T08:57:28.782Z,0.4744
2023-04-16T08:58:31.713Z,0.4781
2023-04-16T08:59:34.649Z,0.4978
2023-04-16T09:00:37.621Z,0.4900
2023-04-16T09:01:40.629Z,0.4963
2023-04-16T09:02:43.739Z,0.4880
2023-04-16T09:03:46.614Z,0.4859
2023-04-16T09:04:49.425Z,0.4879
2023-04-16T09:05:52.329Z,0.4828
2023-04-16T09:06:55.301Z,0.5025
2023-04-16T09:07:58.201Z,0.5124
2023-04-16T09:09:01.166Z,0.4984
2023-04-16T09:10:04.134Z,0.4738
2023-04-16T09:11:07.312Z,0.4819
2023-04-16T09:12:10.000Z,0.4849
2023-04-16T09:13:12.920Z,0.5016
2023-04-16T09:14:15.867Z,0.5079
2023-04-16T09:15:18.796Z,0.5042
2023-04-16T09:16:21.775Z,0.4897
2023-04-16T09:17:24.740Z,0.4924
2023-04-16T09:18:27.638Z,0.4869
2023-04-16T09:19:30.569Z,0.4690
2023-04-16T09:20:33.515Z,0.4707
2023-04-16T09:21:36.488Z,0.4852
2023-04-16T09:22:39.429Z,0.4985
2023-04-16T09:23:42.358Z,0.4953
2023-04-16T09:24:45.311Z,0.4885
2023-04-16T09:25:48.274Z,0.4759
2023-04-16T09:26:51.209Z,0.4907
2023-04-16T09:27:54.268Z,0.5036
2023-04-16T09:28:57.098Z,0.5051
2023-04-16T09:30:00.045Z,0.4839
2023-04-16T09:31:02.983Z,0.4897
2023-04-16T09:32:06.013Z,0.4952
2023-04-16T09:33:09.061Z,0.4943
2023-04-16T09:34:11.820Z,0.4842
2023-04-16T09:35:14.800Z,0.4914
2023-04-16T09:36:17.709Z,0.4916
2023-04-16T09:37:20.632Z,0.4849
2023-04-16T09:38:23.596Z,0.5058
2023-04-16T09:39:26.530Z,0.4986
2023-04-16T09:40:29.469Z,0.4818
2023-04-16T09:41:32.432Z,0.4807
2023-04-16T09:42:35.356Z,0.4976
2023-04-16T09:43:38.313Z,0.5094
2023-04-16T09:44:41.247Z,0.5115
2023-04-16T09:45:44.233Z,0.5102
2023-04-16T09:46:47.139Z,0.4963
2023-04-16T09:47:50.174Z,0.4794
2023-04-16T09:48:53.020Z,0.4823
2023-04-16T09:49:55.964Z,0.4947
2023-04-16T09:50:58.911Z,0.4873
2023-04-16T09:52:01.856Z,0.4797
2023-04-16T09:53:04.891Z,0.4903
2023-04-16T09:54:07.835Z,0.5063
2023-04-16T09:55:10.688Z,0.5066
2023-04-16T09:56:13.706Z,0.5125
2023-04-16T09:57:16.587Z,0.5155
2023-04-16T09:58:19.581Z,0.5046
2023-04-16T09:59:22.539Z,0.5138
2023-04-16T10:00:25.432Z,0.5293
2023-04-16T10:01:28.391Z,0.5168
2023-04-16T10:02:31.375Z,0.4993
2023-04-16T10:03:34.514Z,0.5067
2023-04-16T10:04:37.233Z,0.5011
2023-04-16T10:05:40.136Z,0.4986
2023-04-16T10:06:43.091Z,0.5066
2023-04-16T10:07:46.054Z,0.4866
2023-04-16T10:08:50.260Z,0.4987
2023-04-16T10:09:52.044Z,0.4978
2023-04-16T10:10:54.877Z,0.4851
2023-04-16T10:11:57.841Z,0.5068
2023-04-16T10:13:00.832Z,0.5186
2023-04-16T10:14:03.742Z,0.5122
2023-04-16T10:15:06.680Z,0.4977
2023-04-16T10:16:09.607Z,0.4946
2023-04-16T10:17:12.661Z,0.5033
2023-04-16T10:18:15.522Z,0.5091
2023-04-16T10:19:18.503Z,0.4948
2023-04-16T10:20:21.401Z,0.5021
2023-04-16T10:21:24.357Z,0.4878
2023-04-16T10:22:27.307Z,0.4871
2023-04-16T10:23:30.276Z,0.4864
2023-04-16T10:24:33.198Z,0.5100
2023-04-16T10:25:36.135Z,0.5201
2023-04-16T10:26:39.064Z,0.5124
2023-04-16T10:27:42.009Z,0.4925
2023-04-16T10:28:44.953Z,0.5002
2023-04-16T10:29:47.910Z,0.4914
2023-04-16T10:30:50.875Z,0.4941
2023-04-16T10:31:53.831Z,0.4886
2023-04-16T10:32:58.958Z,0.4725
2023-04-16T10:33:59.672Z,0.4668
2023-04-16T10:35:02.650Z,0.4696
2023-04-16T10:36:07.677Z,0.4800
2023-04-16T10:37:08.505Z,0.4765
2023-04-16T10:38:11.451Z,0.4771
2023-04-16T10:39:16.843Z,0.4770
2023-04-16T10:40:17.441Z,0.4880
2023-04-16T10:41:20.307Z,0.5059
2023-04-16T10:42:23.245Z,0.5079
2023-04-16T10:43:26.170Z,0.5286
2023-04-16T10:44:29.118Z,0.5205
2023-04-16T10:45:32.072Z,0.5008
2023-04-16T10:46:35.095Z,0.5016
2023-04-16T10:47:38.057Z,0.5126
2023-04-16T10:48:49.676Z,0.4981
2023-04-16T10:49:44.031Z,0.4994
2023-04-16T10:50:46.846Z,0.5029
2023-04-16T10:51:49.742Z,0.5210
2023-04-16T10:52:52.698Z,0.4920
2023-04-16T10:53:55.668Z,0.4901
2023-04-16T10:54:58.570Z,0.4952
2023-04-16T10:56:01.597Z,0.5217
2023-04-16T10:57:04.780Z,0.4760
2023-04-16T10:58:07.414Z,0.4826
2023-04-16T10:59:10.543Z,0.4691
2023-04-16T11:00:13.295Z,0.4971
2023-04-16T11:01:16.313Z,0.5166
2023-04-16T11:02:19.720Z,0.5216
2023-04-16T11:03:22.221Z,0.5037
2023-04-16T11:04:25.387Z,0.5013
2023-04-16T11:05:28.010Z,0.4848
2023-04-16T11:06:30.965Z,0.5026
2023-04-16T11:07:33.936Z,0.5274
2023-04-16T11:08:51.092Z,0.5185
2023-04-16T11:09:39.833Z,0.5025
2023-04-16T11:10:42.743Z,0.5049
2023-04-16T11:11:45.679Z,0.4937
2023-04-16T11:12:48.638Z,0.5036
2023-04-16T11:13:51.574Z,0.4943
2023-04-16T11:14:54.643Z,0.4823
2023-04-16T11:15:57.489Z,0.4946
2023-04-16T11:17:00.403Z,0.5207
2023-04-16T11:18:03.385Z,0.5044
2023-04-16T11:19:06.296Z,0.5080
2023-04-16T11:20:19.474Z,0.5022
2023-04-16T11:21:12.326Z,0.5116
2023-04-16T11:22:15.125Z,0.5159
2023-04-16T11:23:18.080Z,0.5032
2023-04-16T11:24:21.016Z,0.5092
2023-04-16T11:25:23.989Z,0.5135
2023-04-16T11:26:26.931Z,0.4957
2023-04-16T11:27:29.874Z,0.4903
2023-04-16T11:28:32.804Z,0.4914
2023-04-16T11:29:35.743Z,0.4891
2023-04-16T11:30:38.726Z,0.4921
2023-04-16T11:31:41.707Z,0.4956
2023-04-16T11:32:44.655Z,0.5127
2023-04-16T11:33:47.523Z,0.5266
2023-04-16T11:34:50.453Z,0.5099
2023-04-16T11:35:53.408Z,0.5054
2023-04-16T11:36:56.340Z,0.5003
2023-04-16T11:37:59.405Z,0.4807
2023-04-16T11:39:02.248Z,0.4876
2023-04-16T11:40:05.186Z,0.5007
2023-04-16T11:41:08.151Z,0.4985
2023-04-16T11:42:11.217Z,0.5201
2023-04-16T11:43:14.028Z,0.5079
2023-04-16T11:44:16.972Z,0.5045
2023-04-16T11:45:19.988Z,0.4984
2023-04-16T11:46:27.825Z,0.5107
2023-04-16T11:47:25.949Z,0.5267
2023-04-16T11:48:28.800Z,0.5222
2023-04-16T11:49:31.713Z,0.5375
2023-04-16T11:50:34.676Z,0.5137
2023-04-16T11:51:37.591Z,0.5210
2023-04-16T11:52:40.561Z,0.5301
2023-04-16T11:53:43.510Z,0.5253
2023-04-16T11:54:46.445Z,0.5147
2023-04-16T11:55:49.382Z,0.4950
2023-04-16T11:56:52.333Z,0.5060
2023-04-16T11:57:55.302Z,0.5068
2023-04-16T11:58:58.250Z,0.5112
2023-04-16T12:00:03.472Z,0.5141
2023-04-16T12:01:04.118Z,0.5231
2023-04-16T12:02:07.210Z,0.5008
2023-04-16T12:03:10.347Z,0.5108
2023-04-16T12:04:13.164Z,0.5215
2023-04-16T12:05:15.932Z,0.4994
2023-04-16T12:06:18.834Z,0.4923
2023-04-16T12:07:21.790Z,0.4883
2023-04-16T12:08:24.725Z,0.4831
2023-04-16T12:09:27.705Z,0.5070
2023-04-16T12:10:30.636Z,0.5330
2023-04-16T12:11:33.565Z,0.5089
2023-04-16T12:12:36.564Z,0.5013
2023-04-16T12:13:39.480Z,0.4907
2023-04-16T12:14:42.395Z,0.4996
2023-04-16T12:15:45.367Z,0.5001
2023-04-16T12:16:48.419Z,0.5205
2023-04-16T12:17:51.270Z,0.5232
2023-04-16T12:18:54.242Z,0.5055
2023-04-16T12:19:57.143Z,0.5145
2023-04-16T12:21:00.173Z,0.5070
2023-04-16T12:22:03.116Z,0.5137
2023-04-16T12:23:06.073Z,0.5182
2023-04-16T12:24:08.999Z,0.5122
2023-04-16T12:25:11.981Z,0.5236
2023-04-16T12:26:15.002Z,0.4947
2023-04-16T12:27:17.878Z,0.4875
2023-04-16T12:28:20.777Z,0.4803
2023-04-16T12:29:23.804Z,0.4951
2023-04-16T12:30:26.685Z,0.4868
2023-04-16T12:31:29.625Z,0.4847
2023-04-16T12:32:32.583Z,0.4990
2023-04-16T12:33:35.521Z,0.4843
2023-04-16T12:34:49.220Z,0.4832
2023-04-16T12:35:41.423Z,0.4970
2023-04-16T12:36:44.354Z,0.5227
2023-04-16T12:37:47.301Z,0.5264
2023-04-16T12:38:50.267Z,0.5254
2023-04-16T12:39:53.198Z,0.5141
2023-04-16T12:40:56.191Z,0.4999
2023-04-16T12:41:59.118Z,0.5176
2023-04-16T12:43:02.039Z,0.5025
2023-04-16T12:44:04.994Z,0.4791
2023-04-16T12:45:07.940Z,0.4949
2023-04-16T12:46:10.930Z,0.5082
2023-04-16T12:47:13.824Z,0.4844
2023-04-16T12:48:16.763Z,0.4783
2023-04-16T12:49:19.744Z,0.4580
2023-04-16T12:50:22.669Z,0.4703
2023-04-16T12:51:25.610Z,0.4986
2023-04-16T12:52:28.567Z,0.4996
2023-04-16T12:53:31.509Z,0.4970
2023-04-16T12:54:34.513Z,0.4885
2023-04-16T12:55:37.417Z,0.4978
2023-04-16T12:56:40.369Z,0.5229
2023-04-16T12:57:43.310Z,0.5346
2023-04-16T12:58:46.249Z,0.5101
2023-04-16T12:59:49.220Z,0.4827
2023-04-16T13:00:52.165Z,0.4927
2023-04-16T13:01:55.135Z,0.4915
2023-04-16T13:02:58.151Z,0.4939
2023-04-16T13:04:01.185Z,0.4944
2023-04-16T13:05:04.008Z,0.5049